sensor_id;sensor_type;location;lat;lon;timestamp;P1;durP1;ratioP1;P2;durP2;ratioP2
52322;SDS011;38263;52.920;6.238;2023-09-18T00:02:20;39.53;;;26.13;;
52322;SDS011;38263;52.920;6.238;2023-09-18T00:04:46;42.78;;;25.25;;
52322;SDS011;38263;52.920;6.238;2023-09-18T00:07:13;37.67;;;24.20;;
52322;SDS011;38263;52.920;6.238;2023-09-18T00:09:39;38.75;;;24.25;;
52322;SDS011;38263;52.920;6.238;2023-09-18T00:12:05;35.38;;;23.23;;
52322;SDS011;38263;52.920;6.238;2023-09-18T00:14:31;40.45;;;24.85;;
52322;SDS011;38263;52.920;6.238;2023-09-18T00:16:57;39.60;;;25.02;;
52322;SDS011;38263;52.920;6.238;2023-09-18T00:19:23;39.13;;;25.20;;
52322;SDS011;38263;52.920;6.238;2023-09-18T00:21:49;41.50;;;25.27;;
52322;SDS011;38263;52.920;6.238;2023-09-18T00:24:15;39.60;;;25.02;;
52322;SDS011;38263;52.920;6.238;2023-09-18T00:26:42;37.42;;;25.30;;
52322;SDS011;38263;52.920;6.238;2023-09-18T00:29:08;32.97;;;24.65;;
52322;SDS011;38263;52.920;6.238;2023-09-18T00:31:33;36.20;;;24.92;;
52322;SDS011;38263;52.920;6.238;2023-09-18T00:33:59;37.35;;;25.02;;
52322;SDS011;38263;52.920;6.238;2023-09-18T00:36:25;34.03;;;25.30;;
52322;SDS011;38263;52.920;6.238;2023-09-18T00:38:51;35.15;;;25.90;;
52322;SDS011;38263;52.920;6.238;2023-09-18T00:41:17;37.72;;;25.20;;
52322;SDS011;38263;52.920;6.238;2023-09-18T00:43:42;37.63;;;25.67;;
52322;SDS011;38263;52.920;6.238;2023-09-18T00:46:08;37.38;;;26.00;;
52322;SDS011;38263;52.920;6.238;2023-09-18T00:48:34;36.10;;;24.30;;
52322;SDS011;38263;52.920;6.238;2023-09-18T00:50:59;36.30;;;25.13;;
52322;SDS011;38263;52.920;6.238;2023-09-18T00:53:27;31.42;;;23.58;;
52322;SDS011;38263;52.920;6.238;2023-09-18T00:55:53;32.35;;;23.35;;
52322;SDS011;38263;52.920;6.238;2023-09-18T00:58:21;31.40;;;22.65;;
52322;SDS011;38263;52.920;6.238;2023-09-18T01:00:47;33.35;;;22.65;;
52322;SDS011;38263;52.920;6.238;2023-09-18T01:03:15;30.60;;;22.23;;
52322;SDS011;38263;52.920;6.238;2023-09-18T01:05:43;34.65;;;23.83;;
52322;SDS011;38263;52.920;6.238;2023-09-18T01:08:09;31.40;;;22.98;;
52322;SDS011;38263;52.920;6.238;2023-09-18T01:10:48;29.90;;;21.70;;
52322;SDS011;38263;52.920;6.238;2023-09-18T01:13:35;33.08;;;22.17;;
52322;SDS011;38263;52.920;6.238;2023-09-18T01:16:10;29.90;;;21.65;;
52322;SDS011;38263;52.920;6.238;2023-09-18T01:18:50;33.63;;;22.27;;
52322;SDS011;38263;52.920;6.238;2023-09-18T01:23:44;27.15;;;20.38;;
52322;SDS011;38263;52.920;6.238;2023-09-18T01:26:10;28.38;;;19.67;;
52322;SDS011;38263;52.920;6.238;2023-09-18T01:28:35;32.25;;;22.63;;
52322;SDS011;38263;52.920;6.238;2023-09-18T01:31:01;37.38;;;22.23;;
52322;SDS011;38263;52.920;6.238;2023-09-18T01:33:28;31.38;;;22.35;;
52322;SDS011;38263;52.920;6.238;2023-09-18T01:35:54;29.25;;;21.77;;
52322;SDS011;38263;52.920;6.238;2023-09-18T01:38:22;30.35;;;23.15;;
52322;SDS011;38263;52.920;6.238;2023-09-18T01:40:48;30.50;;;22.27;;
52322;SDS011;38263;52.920;6.238;2023-09-18T01:43:14;31.58;;;22.63;;
52322;SDS011;38263;52.920;6.238;2023-09-18T01:45:40;26.20;;;20.02;;
52322;SDS011;38263;52.920;6.238;2023-09-18T01:48:07;27.40;;;21.35;;
52322;SDS011;38263;52.920;6.238;2023-09-18T01:50:33;28.05;;;19.80;;
52322;SDS011;38263;52.920;6.238;2023-09-18T01:52:59;28.75;;;20.52;;
52322;SDS011;38263;52.920;6.238;2023-09-18T01:55:25;26.77;;;19.70;;
52322;SDS011;38263;52.920;6.238;2023-09-18T01:57:51;25.40;;;18.90;;
52322;SDS011;38263;52.920;6.238;2023-09-18T02:00:17;29.25;;;20.58;;
52322;SDS011;38263;52.920;6.238;2023-09-18T02:02:43;25.63;;;20.77;;
52322;SDS011;38263;52.920;6.238;2023-09-18T02:05:08;25.40;;;19.85;;
52322;SDS011;38263;52.920;6.238;2023-09-18T02:07:34;28.15;;;19.70;;
52322;SDS011;38263;52.920;6.238;2023-09-18T02:10:00;32.28;;;22.25;;
52322;SDS011;38263;52.920;6.238;2023-09-18T02:12:26;29.33;;;22.15;;
52322;SDS011;38263;52.920;6.238;2023-09-18T02:14:52;31.95;;;24.35;;
52322;SDS011;38263;52.920;6.238;2023-09-18T02:17:18;25.77;;;22.05;;
52322;SDS011;38263;52.920;6.238;2023-09-18T02:19:45;28.42;;;21.95;;
52322;SDS011;38263;52.920;6.238;2023-09-18T02:22:11;27.65;;;22.80;;
52322;SDS011;38263;52.920;6.238;2023-09-18T02:24:36;27.70;;;21.38;;
52322;SDS011;38263;52.920;6.238;2023-09-18T02:27:05;27.38;;;22.13;;
52322;SDS011;38263;52.920;6.238;2023-09-18T02:29:31;32.65;;;22.17;;
52322;SDS011;38263;52.920;6.238;2023-09-18T02:31:56;30.60;;;22.45;;
52322;SDS011;38263;52.920;6.238;2023-09-18T02:34:22;28.90;;;20.65;;
52322;SDS011;38263;52.920;6.238;2023-09-18T02:36:48;29.25;;;21.45;;
52322;SDS011;38263;52.920;6.238;2023-09-18T02:39:13;28.00;;;20.92;;
52322;SDS011;38263;52.920;6.238;2023-09-18T02:41:39;32.28;;;23.55;;
52322;SDS011;38263;52.920;6.238;2023-09-18T02:44:04;31.15;;;22.25;;
52322;SDS011;38263;52.920;6.238;2023-09-18T02:46:30;31.63;;;21.85;;
52322;SDS011;38263;52.920;6.238;2023-09-18T02:48:56;30.13;;;21.90;;
52322;SDS011;38263;52.920;6.238;2023-09-18T02:51:22;31.83;;;21.63;;
52322;SDS011;38263;52.920;6.238;2023-09-18T02:53:48;28.38;;;21.55;;
52322;SDS011;38263;52.920;6.238;2023-09-18T02:56:14;29.65;;;21.88;;
52322;SDS011;38263;52.920;6.238;2023-09-18T02:58:39;28.70;;;21.80;;
52322;SDS011;38263;52.920;6.238;2023-09-18T03:01:06;31.23;;;22.17;;
52322;SDS011;38263;52.920;6.238;2023-09-18T03:03:32;30.77;;;22.63;;
52322;SDS011;38263;52.920;6.238;2023-09-18T03:06:02;29.23;;;22.60;;
52322;SDS011;38263;52.920;6.238;2023-09-18T03:08:28;31.00;;;22.67;;
52322;SDS011;38263;52.920;6.238;2023-09-18T03:10:54;28.48;;;21.58;;
52322;SDS011;38263;52.920;6.238;2023-09-18T03:13:21;30.25;;;23.27;;
52322;SDS011;38263;52.920;6.238;2023-09-18T03:15:47;30.70;;;22.65;;
52322;SDS011;38263;52.920;6.238;2023-09-18T03:18:13;28.23;;;22.13;;
52322;SDS011;38263;52.920;6.238;2023-09-18T03:20:39;29.67;;;21.73;;
52322;SDS011;38263;52.920;6.238;2023-09-18T03:23:05;28.65;;;22.70;;
52322;SDS011;38263;52.920;6.238;2023-09-18T03:25:30;32.83;;;22.45;;
52322;SDS011;38263;52.920;6.238;2023-09-18T03:27:57;30.23;;;22.38;;
52322;SDS011;38263;52.920;6.238;2023-09-18T03:30:23;29.98;;;22.40;;
52322;SDS011;38263;52.920;6.238;2023-09-18T03:32:49;33.00;;;22.52;;
52322;SDS011;38263;52.920;6.238;2023-09-18T03:35:15;29.73;;;21.30;;
52322;SDS011;38263;52.920;6.238;2023-09-18T03:37:48;27.95;;;21.50;;
52322;SDS011;38263;52.920;6.238;2023-09-18T03:40:18;30.90;;;21.80;;
52322;SDS011;38263;52.920;6.238;2023-09-18T03:42:45;27.95;;;21.90;;
52322;SDS011;38263;52.920;6.238;2023-09-18T03:45:11;28.05;;;19.58;;
52322;SDS011;38263;52.920;6.238;2023-09-18T03:47:38;26.23;;;20.60;;
52322;SDS011;38263;52.920;6.238;2023-09-18T03:50:05;28.40;;;20.75;;
52322;SDS011;38263;52.920;6.238;2023-09-18T03:52:31;29.67;;;21.50;;
52322;SDS011;38263;52.920;6.238;2023-09-18T03:54:57;28.00;;;20.52;;
52322;SDS011;38263;52.920;6.238;2023-09-18T03:57:23;24.23;;;19.52;;
52322;SDS011;38263;52.920;6.238;2023-09-18T03:59:49;26.77;;;19.88;;
52322;SDS011;38263;52.920;6.238;2023-09-18T04:02:15;24.83;;;19.02;;
52322;SDS011;38263;52.920;6.238;2023-09-18T04:04:41;24.83;;;18.75;;
52322;SDS011;38263;52.920;6.238;2023-09-18T04:07:06;26.52;;;19.13;;
52322;SDS011;38263;52.920;6.238;2023-09-18T04:09:32;27.10;;;19.08;;
52322;SDS011;38263;52.920;6.238;2023-09-18T04:12:02;23.15;;;18.77;;
52322;SDS011;38263;52.920;6.238;2023-09-18T04:14:30;25.80;;;17.88;;
52322;SDS011;38263;52.920;6.238;2023-09-18T04:16:55;27.50;;;18.92;;
52322;SDS011;38263;52.920;6.238;2023-09-18T04:19:21;26.33;;;17.95;;
52322;SDS011;38263;52.920;6.238;2023-09-18T04:21:47;24.35;;;17.17;;
52322;SDS011;38263;52.920;6.238;2023-09-18T04:24:13;24.33;;;16.80;;
52322;SDS011;38263;52.920;6.238;2023-09-18T04:26:38;22.45;;;17.45;;
52322;SDS011;38263;52.920;6.238;2023-09-18T04:29:04;22.65;;;16.60;;
52322;SDS011;38263;52.920;6.238;2023-09-18T04:31:31;23.08;;;15.80;;
52322;SDS011;38263;52.920;6.238;2023-09-18T04:33:56;21.17;;;16.33;;
52322;SDS011;38263;52.920;6.238;2023-09-18T04:36:22;19.65;;;15.75;;
52322;SDS011;38263;52.920;6.238;2023-09-18T04:38:49;25.98;;;16.67;;
52322;SDS011;38263;52.920;6.238;2023-09-18T04:41:15;21.92;;;15.65;;
52322;SDS011;38263;52.920;6.238;2023-09-18T04:43:41;21.52;;;14.57;;
52322;SDS011;38263;52.920;6.238;2023-09-18T04:46:09;20.10;;;14.52;;
52322;SDS011;38263;52.920;6.238;2023-09-18T04:48:35;22.92;;;14.75;;
52322;SDS011;38263;52.920;6.238;2023-09-18T04:51:01;17.83;;;13.57;;
52322;SDS011;38263;52.920;6.238;2023-09-18T04:53:28;21.42;;;14.10;;
52322;SDS011;38263;52.920;6.238;2023-09-18T04:55:55;21.83;;;13.52;;
52322;SDS011;38263;52.920;6.238;2023-09-18T04:58:21;20.55;;;13.57;;
52322;SDS011;38263;52.920;6.238;2023-09-18T05:00:47;17.38;;;13.63;;
52322;SDS011;38263;52.920;6.238;2023-09-18T05:03:19;19.88;;;13.93;;
52322;SDS011;38263;52.920;6.238;2023-09-18T05:05:45;20.58;;;13.85;;
52322;SDS011;38263;52.920;6.238;2023-09-18T05:08:11;17.80;;;12.95;;
52322;SDS011;38263;52.920;6.238;2023-09-18T05:10:36;16.98;;;12.02;;
52322;SDS011;38263;52.920;6.238;2023-09-18T05:13:02;19.55;;;13.65;;
52322;SDS011;38263;52.920;6.238;2023-09-18T05:15:29;18.65;;;13.07;;
52322;SDS011;38263;52.920;6.238;2023-09-18T05:17:55;15.65;;;12.68;;
52322;SDS011;38263;52.920;6.238;2023-09-18T05:20:22;20.10;;;13.23;;
52322;SDS011;38263;52.920;6.238;2023-09-18T05:22:49;16.88;;;12.10;;
52322;SDS011;38263;52.920;6.238;2023-09-18T05:25:18;14.32;;;10.40;;
52322;SDS011;38263;52.920;6.238;2023-09-18T05:27:44;19.13;;;11.68;;
52322;SDS011;38263;52.920;6.238;2023-09-18T05:30:10;16.20;;;12.68;;
52322;SDS011;38263;52.920;6.238;2023-09-18T05:32:41;18.60;;;12.30;;
52322;SDS011;38263;52.920;6.238;2023-09-18T05:35:08;16.65;;;13.35;;
52322;SDS011;38263;52.920;6.238;2023-09-18T05:37:39;15.30;;;12.13;;
52322;SDS011;38263;52.920;6.238;2023-09-18T05:40:05;17.20;;;11.13;;
52322;SDS011;38263;52.920;6.238;2023-09-18T05:42:34;16.25;;;10.63;;
52322;SDS011;38263;52.920;6.238;2023-09-18T05:45:01;13.52;;;10.32;;
52322;SDS011;38263;52.920;6.238;2023-09-18T05:47:29;15.95;;;9.57;;
52322;SDS011;38263;52.920;6.238;2023-09-18T05:49:55;15.70;;;11.07;;
52322;SDS011;38263;52.920;6.238;2023-09-18T05:52:21;15.15;;;11.45;;
52322;SDS011;38263;52.920;6.238;2023-09-18T05:54:48;17.65;;;11.55;;
52322;SDS011;38263;52.920;6.238;2023-09-18T05:57:14;14.05;;;10.23;;
52322;SDS011;38263;52.920;6.238;2023-09-18T05:59:41;17.33;;;10.75;;
52322;SDS011;38263;52.920;6.238;2023-09-18T06:02:10;12.60;;;9.82;;
52322;SDS011;38263;52.920;6.238;2023-09-18T06:04:36;14.13;;;11.20;;
52322;SDS011;38263;52.920;6.238;2023-09-18T06:07:02;19.38;;;10.93;;
52322;SDS011;38263;52.920;6.238;2023-09-18T06:09:31;20.40;;;10.02;;
52322;SDS011;38263;52.920;6.238;2023-09-18T06:11:57;16.35;;;10.98;;
52322;SDS011;38263;52.920;6.238;2023-09-18T06:14:24;16.38;;;10.23;;
52322;SDS011;38263;52.920;6.238;2023-09-18T06:16:50;17.02;;;11.18;;
52322;SDS011;38263;52.920;6.238;2023-09-18T06:19:16;14.80;;;11.25;;
52322;SDS011;38263;52.920;6.238;2023-09-18T06:21:44;16.63;;;12.15;;
52322;SDS011;38263;52.920;6.238;2023-09-18T06:24:10;14.50;;;11.30;;
52322;SDS011;38263;52.920;6.238;2023-09-18T06:26:37;18.45;;;12.65;;
52322;SDS011;38263;52.920;6.238;2023-09-18T06:29:03;20.52;;;12.30;;
52322;SDS011;38263;52.920;6.238;2023-09-18T06:31:29;20.17;;;12.80;;
52322;SDS011;38263;52.920;6.238;2023-09-18T06:33:56;19.73;;;12.88;;
52322;SDS011;38263;52.920;6.238;2023-09-18T06:36:22;20.88;;;13.43;;
52322;SDS011;38263;52.920;6.238;2023-09-18T06:38:47;21.90;;;15.07;;
52322;SDS011;38263;52.920;6.238;2023-09-18T06:41:13;21.70;;;13.00;;
52322;SDS011;38263;52.920;6.238;2023-09-18T06:43:39;18.63;;;13.52;;
52322;SDS011;38263;52.920;6.238;2023-09-18T06:46:06;18.27;;;14.23;;
52322;SDS011;38263;52.920;6.238;2023-09-18T06:48:32;22.33;;;14.98;;
52322;SDS011;38263;52.920;6.238;2023-09-18T06:50:58;23.27;;;14.30;;
52322;SDS011;38263;52.920;6.238;2023-09-18T06:53:27;24.33;;;15.43;;
52322;SDS011;38263;52.920;6.238;2023-09-18T06:55:53;23.63;;;15.35;;
52322;SDS011;38263;52.920;6.238;2023-09-18T06:58:19;21.38;;;14.82;;
52322;SDS011;38263;52.920;6.238;2023-09-18T07:00:45;22.58;;;14.95;;
52322;SDS011;38263;52.920;6.238;2023-09-18T07:03:11;23.65;;;15.57;;
52322;SDS011;38263;52.920;6.238;2023-09-18T07:05:37;32.08;;;16.45;;
52322;SDS011;38263;52.920;6.238;2023-09-18T07:08:02;26.55;;;14.30;;
52322;SDS011;38263;52.920;6.238;2023-09-18T07:10:30;27.88;;;13.70;;
52322;SDS011;38263;52.920;6.238;2023-09-18T07:12:58;23.15;;;14.57;;
52322;SDS011;38263;52.920;6.238;2023-09-18T07:15:23;23.17;;;14.48;;
52322;SDS011;38263;52.920;6.238;2023-09-18T07:17:49;21.33;;;14.70;;
52322;SDS011;38263;52.920;6.238;2023-09-18T07:20:14;21.02;;;12.82;;
52322;SDS011;38263;52.920;6.238;2023-09-18T07:22:40;20.13;;;12.88;;
52322;SDS011;38263;52.920;6.238;2023-09-18T07:25:10;23.27;;;14.48;;
52322;SDS011;38263;52.920;6.238;2023-09-18T07:27:36;24.45;;;15.07;;
52322;SDS011;38263;52.920;6.238;2023-09-18T07:30:04;24.20;;;15.02;;
52322;SDS011;38263;52.920;6.238;2023-09-18T07:32:30;26.77;;;16.85;;
52322;SDS011;38263;52.920;6.238;2023-09-18T07:34:55;28.15;;;16.60;;
52322;SDS011;38263;52.920;6.238;2023-09-18T07:37:21;25.52;;;18.00;;
52322;SDS011;38263;52.920;6.238;2023-09-18T07:39:46;37.03;;;18.88;;
52322;SDS011;38263;52.920;6.238;2023-09-18T07:42:12;27.70;;;17.27;;
52322;SDS011;38263;52.920;6.238;2023-09-18T07:44:38;32.65;;;18.50;;
52322;SDS011;38263;52.920;6.238;2023-09-18T07:47:04;25.77;;;16.80;;
52322;SDS011;38263;52.920;6.238;2023-09-18T07:49:30;34.10;;;18.77;;
52322;SDS011;38263;52.920;6.238;2023-09-18T07:51:56;25.65;;;17.45;;
52322;SDS011;38263;52.920;6.238;2023-09-18T07:54:22;28.30;;;18.05;;
52322;SDS011;38263;52.920;6.238;2023-09-18T07:56:47;28.50;;;17.85;;
52322;SDS011;38263;52.920;6.238;2023-09-18T07:59:14;26.73;;;17.33;;
52322;SDS011;38263;52.920;6.238;2023-09-18T08:01:40;26.60;;;17.13;;
52322;SDS011;38263;52.920;6.238;2023-09-18T08:04:06;25.60;;;17.13;;
52322;SDS011;38263;52.920;6.238;2023-09-18T08:06:32;27.17;;;15.65;;
52322;SDS011;38263;52.920;6.238;2023-09-18T08:08:58;24.00;;;17.25;;
52322;SDS011;38263;52.920;6.238;2023-09-18T08:11:24;23.17;;;16.27;;
52322;SDS011;38263;52.920;6.238;2023-09-18T08:13:49;27.58;;;17.45;;
52322;SDS011;38263;52.920;6.238;2023-09-18T08:16:15;23.73;;;16.30;;
52322;SDS011;38263;52.920;6.238;2023-09-18T08:18:42;29.00;;;16.27;;
52322;SDS011;38263;52.920;6.238;2023-09-18T08:21:08;22.20;;;15.25;;
52322;SDS011;38263;52.920;6.238;2023-09-18T08:23:37;23.45;;;14.80;;
52322;SDS011;38263;52.920;6.238;2023-09-18T08:26:03;22.15;;;14.15;;
52322;SDS011;38263;52.920;6.238;2023-09-18T08:28:29;23.75;;;14.02;;
52322;SDS011;38263;52.920;6.238;2023-09-18T08:30:55;20.08;;;13.48;;
52322;SDS011;38263;52.920;6.238;2023-09-18T08:33:21;20.83;;;11.73;;
52322;SDS011;38263;52.920;6.238;2023-09-18T08:35:47;16.25;;;11.20;;
52322;SDS011;38263;52.920;6.238;2023-09-18T08:38:14;19.15;;;10.60;;
52322;SDS011;38263;52.920;6.238;2023-09-18T08:40:40;14.45;;;9.82;;
52322;SDS011;38263;52.920;6.238;2023-09-18T08:43:07;16.45;;;10.02;;
52322;SDS011;38263;52.920;6.238;2023-09-18T08:45:42;14.40;;;9.73;;
52322;SDS011;38263;52.920;6.238;2023-09-18T08:48:12;15.80;;;9.73;;
52322;SDS011;38263;52.920;6.238;2023-09-18T08:50:38;14.25;;;9.18;;
52322;SDS011;38263;52.920;6.238;2023-09-18T08:53:05;17.35;;;9.25;;
52322;SDS011;38263;52.920;6.238;2023-09-18T08:55:31;12.98;;;8.98;;
52322;SDS011;38263;52.920;6.238;2023-09-18T08:57:58;14.60;;;9.65;;
52322;SDS011;38263;52.920;6.238;2023-09-18T09:00:25;15.05;;;9.70;;
52322;SDS011;38263;52.920;6.238;2023-09-18T09:02:51;14.30;;;9.43;;
52322;SDS011;38263;52.920;6.238;2023-09-18T09:05:19;18.23;;;11.75;;
52322;SDS011;38263;52.920;6.238;2023-09-18T09:07:45;16.38;;;12.00;;
52322;SDS011;38263;52.920;6.238;2023-09-18T09:10:10;18.33;;;11.07;;
52322;SDS011;38263;52.920;6.238;2023-09-18T09:15:26;17.48;;;12.10;;
52322;SDS011;38263;52.920;6.238;2023-09-18T09:18:11;19.63;;;12.63;;
52322;SDS011;38263;52.920;6.238;2023-09-18T09:20:37;20.77;;;13.13;;
52322;SDS011;38263;52.920;6.238;2023-09-18T09:23:06;18.77;;;13.57;;
52322;SDS011;38263;52.920;6.238;2023-09-18T09:25:33;17.40;;;12.38;;
52322;SDS011;38263;52.920;6.238;2023-09-18T09:28:00;19.75;;;13.93;;
52322;SDS011;38263;52.920;6.238;2023-09-18T09:30:29;18.95;;;13.25;;
52322;SDS011;38263;52.920;6.238;2023-09-18T09:32:57;21.05;;;14.27;;
52322;SDS011;38263;52.920;6.238;2023-09-18T09:35:24;21.70;;;15.30;;
52322;SDS011;38263;52.920;6.238;2023-09-18T09:37:52;24.55;;;15.35;;
52322;SDS011;38263;52.920;6.238;2023-09-18T09:40:20;17.20;;;13.80;;
52322;SDS011;38263;52.920;6.238;2023-09-18T09:42:47;20.45;;;14.88;;
52322;SDS011;38263;52.920;6.238;2023-09-18T09:45:14;23.65;;;15.15;;
52322;SDS011;38263;52.920;6.238;2023-09-18T09:47:41;21.55;;;15.45;;
52322;SDS011;38263;52.920;6.238;2023-09-18T09:50:11;22.65;;;16.13;;
52322;SDS011;38263;52.920;6.238;2023-09-18T09:52:40;22.50;;;14.68;;
52322;SDS011;38263;52.920;6.238;2023-09-18T09:55:24;19.35;;;15.27;;
52322;SDS011;38263;52.920;6.238;2023-09-18T09:57:54;17.02;;;13.63;;
52322;SDS011;38263;52.920;6.238;2023-09-18T10:00:46;17.60;;;13.70;;
52322;SDS011;38263;52.920;6.238;2023-09-18T10:03:18;24.50;;;14.00;;
52322;SDS011;38263;52.920;6.238;2023-09-18T10:05:46;17.95;;;13.52;;
52322;SDS011;38263;52.920;6.238;2023-09-18T10:08:14;16.25;;;11.82;;
52322;SDS011;38263;52.920;6.238;2023-09-18T10:10:55;20.30;;;13.15;;
52322;SDS011;38263;52.920;6.238;2023-09-18T10:13:27;17.17;;;11.27;;
52322;SDS011;38263;52.920;6.238;2023-09-18T10:16:00;12.70;;;9.90;;
52322;SDS011;38263;52.920;6.238;2023-09-18T10:18:35;12.45;;;9.60;;
52322;SDS011;38263;52.920;6.238;2023-09-18T10:23:38;13.35;;;9.00;;
52322;SDS011;38263;52.920;6.238;2023-09-18T10:26:26;12.32;;;9.32;;
52322;SDS011;38263;52.920;6.238;2023-09-18T10:28:54;13.73;;;9.95;;
52322;SDS011;38263;52.920;6.238;2023-09-18T10:31:23;14.55;;;8.68;;
52322;SDS011;38263;52.920;6.238;2023-09-18T10:33:53;10.65;;;9.30;;
52322;SDS011;38263;52.920;6.238;2023-09-18T10:36:24;10.63;;;6.78;;
52322;SDS011;38263;52.920;6.238;2023-09-18T10:38:51;12.20;;;7.97;;
52322;SDS011;38263;52.920;6.238;2023-09-18T10:41:19;11.20;;;7.80;;
52322;SDS011;38263;52.920;6.238;2023-09-18T10:43:46;12.18;;;6.55;;
52322;SDS011;38263;52.920;6.238;2023-09-18T10:46:14;9.50;;;6.18;;
52322;SDS011;38263;52.920;6.238;2023-09-18T10:48:43;10.32;;;6.60;;
52322;SDS011;38263;52.920;6.238;2023-09-18T10:51:11;9.73;;;6.47;;
52322;SDS011;38263;52.920;6.238;2023-09-18T10:53:38;8.60;;;6.80;;
52322;SDS011;38263;52.920;6.238;2023-09-18T10:56:05;8.88;;;5.30;;
52322;SDS011;38263;52.920;6.238;2023-09-18T10:58:31;10.50;;;7.45;;
52322;SDS011;38263;52.920;6.238;2023-09-18T11:01:00;7.93;;;5.97;;
52322;SDS011;38263;52.920;6.238;2023-09-18T11:03:27;8.73;;;5.20;;
52322;SDS011;38263;52.920;6.238;2023-09-18T11:06:06;8.43;;;4.97;;
52322;SDS011;38263;52.920;6.238;2023-09-18T11:08:35;10.57;;;5.45;;
52322;SDS011;38263;52.920;6.238;2023-09-18T11:11:11;10.20;;;5.20;;
52322;SDS011;38263;52.920;6.238;2023-09-18T11:13:46;9.85;;;5.82;;
52322;SDS011;38263;52.920;6.238;2023-09-18T11:19:16;8.75;;;4.82;;
52322;SDS011;38263;52.920;6.238;2023-09-18T11:21:42;10.15;;;5.13;;
52322;SDS011;38263;52.920;6.238;2023-09-18T11:24:14;6.63;;;4.72;;
52322;SDS011;38263;52.920;6.238;2023-09-18T11:26:46;9.23;;;5.07;;
52322;SDS011;38263;52.920;6.238;2023-09-18T11:29:22;9.25;;;4.90;;
52322;SDS011;38263;52.920;6.238;2023-09-18T11:31:49;8.63;;;4.38;;
52322;SDS011;38263;52.920;6.238;2023-09-18T11:34:23;6.50;;;4.85;;
52322;SDS011;38263;52.920;6.238;2023-09-18T11:36:51;8.98;;;4.60;;
52322;SDS011;38263;52.920;6.238;2023-09-18T11:44:35;5.70;;;4.82;;
52322;SDS011;38263;52.920;6.238;2023-09-18T11:47:06;6.05;;;4.00;;
52322;SDS011;38263;52.920;6.238;2023-09-18T11:49:46;9.57;;;4.50;;
52322;SDS011;38263;52.920;6.238;2023-09-18T11:52:16;6.75;;;4.28;;
52322;SDS011;38263;52.920;6.238;2023-09-18T11:54:42;8.60;;;4.63;;
52322;SDS011;38263;52.920;6.238;2023-09-18T11:57:10;6.47;;;4.28;;
52322;SDS011;38263;52.920;6.238;2023-09-18T11:59:38;7.57;;;4.53;;
52322;SDS011;38263;52.920;6.238;2023-09-18T12:02:11;6.65;;;4.18;;
52322;SDS011;38263;52.920;6.238;2023-09-18T12:04:56;5.20;;;3.40;;
52322;SDS011;38263;52.920;6.238;2023-09-18T12:07:22;5.35;;;3.38;;
52322;SDS011;38263;52.920;6.238;2023-09-18T12:09:49;4.78;;;3.65;;
52322;SDS011;38263;52.920;6.238;2023-09-18T12:12:15;7.53;;;3.58;;
52322;SDS011;38263;52.920;6.238;2023-09-18T12:14:42;11.73;;;4.32;;
52322;SDS011;38263;52.920;6.238;2023-09-18T12:17:09;4.50;;;3.47;;
52322;SDS011;38263;52.920;6.238;2023-09-18T12:19:49;7.30;;;3.70;;
52322;SDS011;38263;52.920;6.238;2023-09-18T12:22:22;6.20;;;4.32;;
52322;SDS011;38263;52.920;6.238;2023-09-18T12:24:49;5.05;;;3.63;;
52322;SDS011;38263;52.920;6.238;2023-09-18T12:27:15;4.85;;;4.22;;
52322;SDS011;38263;52.920;6.238;2023-09-18T12:29:40;8.20;;;5.22;;
52322;SDS011;38263;52.920;6.238;2023-09-18T12:32:11;8.27;;;4.80;;
52322;SDS011;38263;52.920;6.238;2023-09-18T12:34:39;8.00;;;3.97;;
52322;SDS011;38263;52.920;6.238;2023-09-18T12:37:06;6.28;;;3.90;;
52322;SDS011;38263;52.920;6.238;2023-09-18T12:39:33;7.22;;;3.60;;
52322;SDS011;38263;52.920;6.238;2023-09-18T12:41:59;6.75;;;3.90;;
52322;SDS011;38263;52.920;6.238;2023-09-18T12:44:26;8.98;;;3.97;;
52322;SDS011;38263;52.920;6.238;2023-09-18T12:46:51;6.65;;;3.90;;
52322;SDS011;38263;52.920;6.238;2023-09-18T12:49:21;5.13;;;3.65;;
52322;SDS011;38263;52.920;6.238;2023-09-18T12:51:59;5.85;;;3.85;;
52322;SDS011;38263;52.920;6.238;2023-09-18T12:54:42;6.25;;;4.68;;
52322;SDS011;38263;52.920;6.238;2023-09-18T12:57:10;6.43;;;3.72;;
52322;SDS011;38263;52.920;6.238;2023-09-18T12:59:40;7.55;;;4.43;;
52322;SDS011;38263;52.920;6.238;2023-09-18T13:02:05;8.20;;;4.40;;
52322;SDS011;38263;52.920;6.238;2023-09-18T13:04:32;4.50;;;3.90;;
52322;SDS011;38263;52.920;6.238;2023-09-18T13:07:09;6.75;;;4.22;;
52322;SDS011;38263;52.920;6.238;2023-09-18T13:09:37;7.95;;;4.57;;
52322;SDS011;38263;52.920;6.238;2023-09-18T13:12:03;10.82;;;4.57;;
52322;SDS011;38263;52.920;6.238;2023-09-18T13:14:29;5.63;;;4.35;;
52322;SDS011;38263;52.920;6.238;2023-09-18T13:17:01;7.97;;;3.65;;
52322;SDS011;38263;52.920;6.238;2023-09-18T13:19:29;5.63;;;4.00;;
52322;SDS011;38263;52.920;6.238;2023-09-18T13:21:55;10.25;;;3.95;;
52322;SDS011;38263;52.920;6.238;2023-09-18T13:24:24;5.93;;;3.75;;
52322;SDS011;38263;52.920;6.238;2023-09-18T13:26:50;4.18;;;3.00;;
52322;SDS011;38263;52.920;6.238;2023-09-18T13:29:17;7.15;;;3.50;;
52322;SDS011;38263;52.920;6.238;2023-09-18T13:31:43;5.28;;;3.20;;
52322;SDS011;38263;52.920;6.238;2023-09-18T13:34:08;5.47;;;3.53;;
52322;SDS011;38263;52.920;6.238;2023-09-18T13:36:34;5.28;;;4.07;;
52322;SDS011;38263;52.920;6.238;2023-09-18T13:38:59;7.10;;;3.67;;
52322;SDS011;38263;52.920;6.238;2023-09-18T13:41:25;4.50;;;3.78;;
52322;SDS011;38263;52.920;6.238;2023-09-18T13:43:51;6.18;;;3.97;;
52322;SDS011;38263;52.920;6.238;2023-09-18T13:46:20;6.93;;;3.80;;
52322;SDS011;38263;52.920;6.238;2023-09-18T13:48:46;7.88;;;3.67;;
52322;SDS011;38263;52.920;6.238;2023-09-18T13:51:12;6.57;;;3.17;;
52322;SDS011;38263;52.920;6.238;2023-09-18T13:53:38;6.03;;;2.70;;
52322;SDS011;38263;52.920;6.238;2023-09-18T13:56:06;4.68;;;2.65;;
52322;SDS011;38263;52.920;6.238;2023-09-18T13:58:31;4.28;;;2.95;;
52322;SDS011;38263;52.920;6.238;2023-09-18T14:00:58;3.95;;;2.97;;
52322;SDS011;38263;52.920;6.238;2023-09-18T14:03:24;7.57;;;3.25;;
52322;SDS011;38263;52.920;6.238;2023-09-18T14:05:50;4.63;;;3.13;;
52322;SDS011;38263;52.920;6.238;2023-09-18T14:08:15;6.43;;;3.45;;
52322;SDS011;38263;52.920;6.238;2023-09-18T14:10:43;7.97;;;4.05;;
52322;SDS011;38263;52.920;6.238;2023-09-18T14:13:09;7.15;;;4.15;;
52322;SDS011;38263;52.920;6.238;2023-09-18T14:15:34;7.03;;;3.85;;
52322;SDS011;38263;52.920;6.238;2023-09-18T14:18:00;8.55;;;4.10;;
52322;SDS011;38263;52.920;6.238;2023-09-18T14:20:26;4.90;;;3.47;;
52322;SDS011;38263;52.920;6.238;2023-09-18T14:22:51;7.35;;;4.10;;
52322;SDS011;38263;52.920;6.238;2023-09-18T14:25:17;7.25;;;4.13;;
52322;SDS011;38263;52.920;6.238;2023-09-18T14:27:44;6.32;;;3.65;;
52322;SDS011;38263;52.920;6.238;2023-09-18T14:30:10;6.00;;;3.55;;
52322;SDS011;38263;52.920;6.238;2023-09-18T14:32:38;6.10;;;2.78;;
52322;SDS011;38263;52.920;6.238;2023-09-18T14:35:05;4.15;;;3.00;;
52322;SDS011;38263;52.920;6.238;2023-09-18T14:37:33;5.18;;;3.20;;
52322;SDS011;38263;52.920;6.238;2023-09-18T14:39:59;3.92;;;3.05;;
52322;SDS011;38263;52.920;6.238;2023-09-18T14:42:25;7.13;;;3.03;;
52322;SDS011;38263;52.920;6.238;2023-09-18T14:44:50;6.57;;;2.75;;
52322;SDS011;38263;52.920;6.238;2023-09-18T14:47:16;7.15;;;3.20;;